createdAt,value
2023-05-14T00:00:16.511Z,64.51
2023-05-14T00:02:45.595Z,64.67
2023-05-14T00:05:12.344Z,64.54
2023-05-14T00:07:43.948Z,64.82
2023-05-14T00:10:10.677Z,64.45
2023-05-14T00:12:37.309Z,64.62
2023-05-14T00:15:06.404Z,64.66
2023-05-14T00:17:33.169Z,64.61
2023-05-14T00:19:59.909Z,64.38
2023-05-14T00:22:26.582Z,64.26
2023-05-14T00:24:55.691Z,64.28
2023-05-14T00:27:24.625Z,64.44
2023-05-14T00:29:51.196Z,64.48
2023-05-14T00:32:17.930Z,64.13
2023-05-14T00:34:44.518Z,64.15
2023-05-14T00:37:11.146Z,64.53
2023-05-14T00:39:37.728Z,64.31
2023-05-14T00:42:04.577Z,64.50
2023-05-14T00:44:33.650Z,64.38
2023-05-14T00:47:00.521Z,64.60
2023-05-14T00:49:29.666Z,64.31
2023-05-14T00:52:00.418Z,63.66
2023-05-14T00:54:27.108Z,64.13
2023-05-14T00:56:54.003Z,64.08
2023-05-14T00:59:22.995Z,63.82
2023-05-14T01:01:49.537Z,64.29
2023-05-14T01:04:16.731Z,64.29
2023-05-14T01:06:58.641Z,64.01
2023-05-14T01:09:31.196Z,64.04
2023-05-14T01:12:00.544Z,63.88
2023-05-14T01:14:30.201Z,64.01
2023-05-14T01:16:59.951Z,63.94
2023-05-14T01:19:39.110Z,64.29
2023-05-14T01:22:08.682Z,64.53
2023-05-14T01:24:35.438Z,63.28
2023-05-14T01:27:08.140Z,63.71
2023-05-14T01:29:34.917Z,64.02
2023-05-14T01:32:01.587Z,63.35
2023-05-14T01:34:32.659Z,63.40
2023-05-14T01:37:02.852Z,63.67
2023-05-14T01:39:32.483Z,64.09
2023-05-14T01:41:59.130Z,63.68
2023-05-14T01:44:25.721Z,64.03
2023-05-14T01:46:54.876Z,64.20
2023-05-14T01:49:21.717Z,64.30
2023-05-14T01:51:50.998Z,64.28
2023-05-14T01:54:17.671Z,64.52
2023-05-14T01:56:44.344Z,64.22
2023-05-14T01:59:11.147Z,64.65
2023-05-14T02:01:43.245Z,64.60
2023-05-14T02:04:09.925Z,64.59
2023-05-14T02:06:36.536Z,64.81
2023-05-14T02:09:04.903Z,65.27
2023-05-14T02:11:33.714Z,66.02
2023-05-14T02:14:00.407Z,65.92
2023-05-14T02:16:27.263Z,65.98
2023-05-14T02:18:53.921Z,65.86
2023-05-14T02:21:20.753Z,65.84
2023-05-14T02:23:49.472Z,65.67
2023-05-14T02:26:16.197Z,66.04
2023-05-14T02:28:42.945Z,66.07
2023-05-14T02:31:09.921Z,65.65
2023-05-14T02:33:39.098Z,65.67
2023-05-14T02:36:05.862Z,65.64
2023-05-14T02:38:32.548Z,65.45
2023-05-14T02:40:59.331Z,65.29
2023-05-14T02:43:25.970Z,65.23
2023-05-14T02:45:52.654Z,65.32
2023-05-14T02:48:19.328Z,65.26
2023-05-14T02:50:46.521Z,64.66
2023-05-14T02:53:13.208Z,65.09
2023-05-14T02:55:39.925Z,64.59
2023-05-14T02:58:07.693Z,64.26
2023-05-14T03:00:34.388Z,64.45
2023-05-14T03:03:02.568Z,63.90
2023-05-14T03:05:29.733Z,63.90
2023-05-14T03:07:56.708Z,64.32
2023-05-14T03:10:28.030Z,64.38
2023-05-14T03:12:54.745Z,63.79
2023-05-14T03:15:24.366Z,64.03
2023-05-14T03:17:53.803Z,63.99
2023-05-14T03:20:24.176Z,64.56
2023-05-14T03:22:52.711Z,63.74
2023-05-14T03:25:19.366Z,64.24
2023-05-14T03:27:46.350Z,63.90
2023-05-14T03:30:13.065Z,63.58
2023-05-14T03:32:42.959Z,64.23
2023-05-14T03:35:09.756Z,64.36
2023-05-14T03:37:36.602Z,64.12
2023-05-14T03:40:03.260Z,63.28
2023-05-14T03:42:29.949Z,63.13
2023-05-14T03:44:56.604Z,62.87
2023-05-14T03:47:23.412Z,62.97
2023-05-14T03:49:53.228Z,62.93
2023-05-14T03:52:19.960Z,63.33
2023-05-14T03:54:51.686Z,63.58
2023-05-14T03:57:18.287Z,63.19
2023-05-14T03:59:44.920Z,62.71
2023-05-14T04:02:15.652Z,63.10
2023-05-14T04:04:42.393Z,62.88
2023-05-14T04:07:11.250Z,63.13
2023-05-14T04:09:37.935Z,62.88
2023-05-14T04:12:07.412Z,62.75
2023-05-14T04:14:36.531Z,61.80
2023-05-14T04:17:04.101Z,61.99
2023-05-14T04:19:30.770Z,61.69
2023-05-14T04:21:57.315Z,62.71
2023-05-14T04:24:23.887Z,62.70
2023-05-14T04:26:50.491Z,62.57
2023-05-14T04:29:19.438Z,62.55
2023-05-14T04:31:46.530Z,61.83
2023-05-14T04:34:13.229Z,61.88
2023-05-14T04:36:40.276Z,62.27
2023-05-14T04:39:07.027Z,62.33
2023-05-14T04:41:36.818Z,62.20
2023-05-14T04:44:03.509Z,61.27
2023-05-14T04:46:30.250Z,61.48
2023-05-14T04:48:57.018Z,61.20
2023-05-14T04:51:23.759Z,61.66
2023-05-14T04:53:50.529Z,61.89
2023-05-14T04:56:22.033Z,61.64
2023-05-14T04:58:48.658Z,61.88
2023-05-14T05:01:15.562Z,61.97
2023-05-14T05:03:42.301Z,62.04
2023-05-14T05:06:11.270Z,60.95
2023-05-14T05:08:37.977Z,61.58
2023-05-14T05:11:04.936Z,61.93
2023-05-14T05:13:32.387Z,61.82
2023-05-14T05:15:59.067Z,61.12
2023-05-14T05:18:28.285Z,61.21
2023-05-14T05:20:55.033Z,60.77
2023-05-14T05:23:21.678Z,61.67
2023-05-14T05:25:48.287Z,61.17
2023-05-14T05:28:17.042Z,61.69
2023-05-14T05:30:45.230Z,61.22
2023-05-14T05:33:12.266Z,60.99
2023-05-14T05:35:41.970Z,60.74
2023-05-14T05:38:15.149Z,60.63
2023-05-14T05:40:41.999Z,59.90
2023-05-14T05:43:08.569Z,59.96
2023-05-14T05:45:35.144Z,60.16
2023-05-14T05:48:04.396Z,60.18
2023-05-14T05:50:31.833Z,60.38
2023-05-14T05:53:01.558Z,59.87
2023-05-14T05:55:28.628Z,60.38
2023-05-14T05:57:57.596Z,60.60
2023-05-14T06:00:24.582Z,60.32
2023-05-14T06:02:52.272Z,60.11
2023-05-14T06:05:19.561Z,60.08
2023-05-14T06:07:46.282Z,59.83
2023-05-14T06:10:15.005Z,60.13
2023-05-14T06:12:41.670Z,60.18
2023-05-14T06:15:08.912Z,60.01
2023-05-14T06:17:38.009Z,59.94
2023-05-14T06:20:08.152Z,60.32
2023-05-14T06:22:35.155Z,60.21
2023-05-14T06:25:01.998Z,59.99
2023-05-14T06:27:28.661Z,60.27
2023-05-14T06:29:57.710Z,60.11
2023-05-14T06:32:24.372Z,60.44
2023-05-14T06:34:51.204Z,60.57
2023-05-14T06:37:18.237Z,60.74
2023-05-14T06:39:50.102Z,60.45
2023-05-14T06:42:17.204Z,60.78
2023-05-14T06:44:44.261Z,60.82
2023-05-14T06:47:11.387Z,61.14
2023-05-14T06:49:38.010Z,61.13
2023-05-14T06:52:06.864Z,60.77
2023-05-14T06:54:33.661Z,60.79
2023-05-14T06:57:00.374Z,61.11
2023-05-14T06:59:27.022Z,61.13
2023-05-14T07:01:56.132Z,61.21
2023-05-14T07:04:22.875Z,61.19
2023-05-14T07:06:49.480Z,60.95
2023-05-14T07:09:18.403Z,60.60
2023-05-14T07:11:45.030Z,60.19
2023-05-14T07:14:11.656Z,59.84
2023-05-14T07:16:38.386Z,59.47
2023-05-14T07:19:07.569Z,59.73
2023-05-14T07:21:35.017Z,59.99
2023-05-14T07:24:04.847Z,58.98
2023-05-14T07:26:34.549Z,59.26
2023-05-14T07:29:04.135Z,58.38
2023-05-14T07:31:30.982Z,58.16
2023-05-14T07:33:57.801Z,58.07
2023-05-14T07:36:24.792Z,57.93
2023-05-14T07:38:53.751Z,57.55
2023-05-14T07:41:22.856Z,56.81
2023-05-14T07:43:49.498Z,56.43
2023-05-14T07:46:18.598Z,55.41
2023-05-14T07:48:45.402Z,55.76
2023-05-14T07:51:12.081Z,55.74
2023-05-14T07:53:41.232Z,56.18
2023-05-14T07:56:08.045Z,56.35
2023-05-14T07:58:35.213Z,56.23
2023-05-14T08:01:03.945Z,55.74
2023-05-14T08:03:30.667Z,55.70
2023-05-14T08:05:57.706Z,55.71
2023-05-14T08:08:24.744Z,55.22
2023-05-14T08:10:51.356Z,54.75
2023-05-14T08:13:23.219Z,55.47
2023-05-14T08:15:49.842Z,56.04
2023-05-14T08:18:21.345Z,56.19
2023-05-14T08:20:50.086Z,56.08
2023-05-14T08:23:16.826Z,56.52
2023-05-14T08:25:43.464Z,56.22
2023-05-14T08:28:10.049Z,55.55
2023-05-14T08:30:38.961Z,56.03
2023-05-14T08:33:08.041Z,57.04
2023-05-14T08:35:35.062Z,57.07
2023-05-14T08:38:01.778Z,56.80
2023-05-14T08:40:28.465Z,57.06
2023-05-14T08:42:57.547Z,57.66
2023-05-14T08:45:27.494Z,57.66
2023-05-14T08:47:54.194Z,58.38
2023-05-14T08:50:22.874Z,58.57
2023-05-14T08:52:55.205Z,58.57
2023-05-14T08:55:26.136Z,58.09
2023-05-14T08:57:52.770Z,58.22
2023-05-14T09:00:23.220Z,57.98
2023-05-14T09:02:57.837Z,58.00
2023-05-14T09:05:29.479Z,57.34
2023-05-14T09:07:56.116Z,58.03
2023-05-14T09:10:22.942Z,57.77
2023-05-14T09:12:49.830Z,58.08
2023-05-14T09:15:16.884Z,57.91
2023-05-14T09:17:46.872Z,58.16
2023-05-14T09:20:16.584Z,58.62
2023-05-14T09:22:43.292Z,58.42
2023-05-14T09:25:12.384Z,58.17
2023-05-14T09:27:41.547Z,58.85
2023-05-14T09:30:12.097Z,59.31
2023-05-14T09:32:50.950Z,59.27
2023-05-14T09:35:18.709Z,59.09
2023-05-14T09:37:46.348Z,59.95
2023-05-14T09:40:15.939Z,60.29
2023-05-14T09:42:45.228Z,59.86
2023-05-14T09:45:12.091Z,59.83
2023-05-14T09:47:39.177Z,59.71
2023-05-14T09:50:06.741Z,59.90
2023-05-14T09:52:36.184Z,59.13
2023-05-14T09:55:02.742Z,59.60
2023-05-14T09:57:34.761Z,59.56
2023-05-14T10:00:01.478Z,59.26
2023-05-14T10:02:38.384Z,59.78
2023-05-14T10:05:06.435Z,60.25
2023-05-14T10:07:49.349Z,60.45
2023-05-14T10:10:18.763Z,60.71
2023-05-14T10:13:05.765Z,61.02
2023-05-14T10:15:42.055Z,60.89
2023-05-14T10:18:10.843Z,61.13
2023-05-14T10:20:41.073Z,60.83
2023-05-14T10:23:07.820Z,60.95
2023-05-14T10:25:35.106Z,60.34
2023-05-14T10:28:01.754Z,59.78
2023-05-14T10:30:30.689Z,60.02
2023-05-14T10:33:10.286Z,59.57
2023-05-14T10:36:03.339Z,59.71
2023-05-14T10:38:33.083Z,59.45
2023-05-14T10:41:00.470Z,59.88
2023-05-14T10:43:31.081Z,60.71
2023-05-14T10:46:00.905Z,60.02
2023-05-14T10:48:27.498Z,60.84
2023-05-14T10:50:54.467Z,61.19
2023-05-14T10:53:36.681Z,60.47
2023-05-14T10:56:04.981Z,61.14
2023-05-14T10:58:34.244Z,61.12
2023-05-14T11:01:01.498Z,61.04
2023-05-14T11:03:34.386Z,61.07
2023-05-14T11:06:03.560Z,60.50
2023-05-14T11:08:32.739Z,60.54
2023-05-14T11:10:59.864Z,60.27
2023-05-14T11:13:26.877Z,60.63
2023-05-14T11:15:55.892Z,60.87
2023-05-14T11:18:38.751Z,61.52
2023-05-14T11:21:05.586Z,61.57
2023-05-14T11:23:36.844Z,62.03
2023-05-14T11:26:03.763Z,62.19
2023-05-14T11:28:33.024Z,62.65
2023-05-14T11:31:01.996Z,62.77
2023-05-14T11:33:28.807Z,62.94
2023-05-14T11:35:55.761Z,63.79
2023-05-14T11:38:25.205Z,64.76
2023-05-14T11:40:55.762Z,64.68
2023-05-14T11:43:24.897Z,65.15
2023-05-14T11:45:54.931Z,65.19
2023-05-14T11:48:21.977Z,65.19
2023-05-14T11:50:49.264Z,64.92
2023-05-14T11:53:19.869Z,65.37
2023-05-14T11:55:49.346Z,64.90
2023-05-14T11:58:17.051Z,65.64
2023-05-14T12:00:44.728Z,65.33
2023-05-14T12:03:11.638Z,65.54
2023-05-14T12:05:41.624Z,64.86
2023-05-14T12:08:26.076Z,65.00
2023-05-14T12:10:56.252Z,65.34
2023-05-14T12:13:25.489Z,65.64
2023-05-14T12:15:56.157Z,65.35
2023-05-14T12:18:25.659Z,65.59
2023-05-14T12:20:52.344Z,65.97
2023-05-14T12:23:26.255Z,65.91
2023-05-14T12:25:53.312Z,65.64
2023-05-14T12:28:20.121Z,65.76
2023-05-14T12:30:47.182Z,66.63
2023-05-14T12:33:14.755Z,66.71
2023-05-14T12:35:44.094Z,67.21
2023-05-14T12:38:13.687Z,67.36
2023-05-14T12:40:40.250Z,67.32
2023-05-14T12:43:06.996Z,67.17
2023-05-14T12:45:33.697Z,67.74
2023-05-14T12:48:03.206Z,68.10
2023-05-14T12:50:29.853Z,68.10
2023-05-14T12:52:56.582Z,68.30
2023-05-14T12:55:23.284Z,69.14
2023-05-14T12:57:52.525Z,69.21
2023-05-14T13:00:21.657Z,69.69
2023-05-14T13:02:52.982Z,69.96
2023-05-14T13:05:19.710Z,70.09
2023-05-14T13:07:46.330Z,69.75
2023-05-14T13:10:15.350Z,70.25
2023-05-14T13:12:44.383Z,70.56
2023-05-14T13:15:11.227Z,70.93
2023-05-14T13:17:37.828Z,71.23
2023-05-14T13:20:05.330Z,71.29
2023-05-14T13:22:31.938Z,71.18
2023-05-14T13:25:01.004Z,71.57
2023-05-14T13:27:30.531Z,71.49
2023-05-14T13:29:57.199Z,71.79
2023-05-14T13:32:28.692Z,72.13
2023-05-14T13:34:57.860Z,72.47
2023-05-14T13:37:25.161Z,72.90
2023-05-14T13:39:51.751Z,72.90
2023-05-14T13:42:20.788Z,73.23
2023-05-14T13:44:49.595Z,72.76
2023-05-14T13:47:18.661Z,72.72
2023-05-14T13:49:47.860Z,72.62
2023-05-14T13:52:17.418Z,72.25
2023-05-14T13:54:46.565Z,72.83
2023-05-14T13:57:13.438Z,73.07
2023-05-14T13:59:40.116Z,73.06
2023-05-14T14:02:07.066Z,73.31
2023-05-14T14:04:33.745Z,73.19
2023-05-14T14:07:00.564Z,73.88
2023-05-14T14:09:27.203Z,73.74
2023-05-14T14:11:53.853Z,73.75
2023-05-14T14:14:20.505Z,73.98
2023-05-14T14:16:49.613Z,74.35
2023-05-14T14:19:18.268Z,74.10
2023-05-14T14:21:45.526Z,74.74
2023-05-14T14:24:12.233Z,75.14
2023-05-14T14:26:38.869Z,75.34
2023-05-14T14:29:10.344Z,75.54
2023-05-14T14:31:39.521Z,76.06
2023-05-14T14:34:08.628Z,75.75
2023-05-14T14:36:42.556Z,75.86
2023-05-14T14:39:09.148Z,76.22
2023-05-14T14:41:36.139Z,76.03
2023-05-14T14:44:02.948Z,76.27
2023-05-14T14:46:32.326Z,76.63
2023-05-14T14:49:01.816Z,77.32
2023-05-14T14:51:33.239Z,76.87
2023-05-14T14:54:00.252Z,77.09
2023-05-14T14:56:27.178Z,77.16
2023-05-14T14:58:56.200Z,76.69
2023-05-14T15:01:22.990Z,76.99
2023-05-14T15:03:49.664Z,76.91
2023-05-14T15:06:16.508Z,76.67
2023-05-14T15:08:45.544Z,76.77
2023-05-14T15:11:17.279Z,76.65
2023-05-14T15:13:44.136Z,76.50
2023-05-14T15:16:11.287Z,76.42
2023-05-14T15:18:43.289Z,77.01
2023-05-14T15:21:10.254Z,76.91
2023-05-14T15:23:36.940Z,77.63
2023-05-14T15:26:06.077Z,77.47
2023-05-14T15:28:35.159Z,77.96
2023-05-14T15:31:04.846Z,78.31
2023-05-14T15:33:31.510Z,78.66
2023-05-14T15:36:00.884Z,78.86
2023-05-14T15:38:27.628Z,78.88
2023-05-14T15:40:54.196Z,78.84
2023-05-14T15:43:23.356Z,78.60
2023-05-14T15:45:50.473Z,78.58
2023-05-14T15:48:19.514Z,78.76
2023-05-14T15:50:50.046Z,78.85
2023-05-14T15:53:21.940Z,78.86
2023-05-14T15:55:48.858Z,79.26
2023-05-14T15:58:15.520Z,79.40
2023-05-14T16:00:42.134Z,79.69
2023-05-14T16:03:12.746Z,79.93
2023-05-14T16:05:45.080Z,80.24
2023-05-14T16:08:11.668Z,80.02
2023-05-14T16:10:39.301Z,80.93
2023-05-14T16:13:05.880Z,80.85
2023-05-14T16:15:32.534Z,81.21
2023-05-14T16:17:59.926Z,81.28
2023-05-14T16:20:26.637Z,81.69
2023-05-14T16:22:53.288Z,82.04
2023-05-14T16:25:20.234Z,82.08
2023-05-14T16:27:46.885Z,81.89
2023-05-14T16:30:13.475Z,81.82
2023-05-14T16:32:42.092Z,81.58
2023-05-14T16:35:09.101Z,81.86
2023-05-14T16:37:38.174Z,81.67
2023-05-14T16:40:05.014Z,81.84
2023-05-14T16:42:34.610Z,81.27
2023-05-14T16:45:01.461Z,81.25
2023-05-14T16:47:28.412Z,81.00
2023-05-14T16:49:55.070Z,80.87
2023-05-14T16:52:21.968Z,80.06
2023-05-14T16:54:48.798Z,80.08
2023-05-14T16:57:15.759Z,79.49
2023-05-14T16:59:42.470Z,79.50
2023-05-14T17:02:09.537Z,79.69
2023-05-14T17:04:38.895Z,79.44
2023-05-14T17:07:05.685Z,79.25
2023-05-14T17:09:32.376Z,78.92
2023-05-14T17:11:58.992Z,78.46
2023-05-14T17:14:25.695Z,78.69
2023-05-14T17:16:54.609Z,78.54
2023-05-14T17:19:21.286Z,78.13
2023-05-14T17:21:48.060Z,78.16
2023-05-14T17:24:14.609Z,78.05
2023-05-14T17:26:43.823Z,78.12
2023-05-14T17:29:10.550Z,78.06
2023-05-14T17:31:37.443Z,78.18
2023-05-14T17:34:06.342Z,78.29
2023-05-14T17:36:33.127Z,78.13
2023-05-14T17:38:59.906Z,78.29
2023-05-14T17:41:28.842Z,78.15
2023-05-14T17:43:55.564Z,78.23
2023-05-14T17:46:24.732Z,78.23
2023-05-14T17:48:51.402Z,78.14
2023-05-14T17:51:20.586Z,78.49
2023-05-14T17:53:47.492Z,79.04
2023-05-14T17:56:14.428Z,78.97
2023-05-14T17:58:41.495Z,80.02
2023-05-14T18:01:10.430Z,80.33
2023-05-14T18:03:37.153Z,81.36
2023-05-14T18:06:04.840Z,82.37
2023-05-14T18:08:31.473Z,82.99
2023-05-14T18:11:00.883Z,83.77
2023-05-14T18:13:28.056Z,84.80
2023-05-14T18:15:59.222Z,84.55
2023-05-14T18:18:28.313Z,85.78
2023-05-14T18:20:57.695Z,85.81
2023-05-14T18:23:29.243Z,86.24
2023-05-14T18:25:58.047Z,86.00
2023-05-14T18:28:24.749Z,86.32
2023-05-14T18:30:53.911Z,85.92
2023-05-14T18:33:22.907Z,85.93
2023-05-14T18:35:49.959Z,85.90
2023-05-14T18:38:18.021Z,85.32
2023-05-14T18:40:44.813Z,85.98
2023-05-14T18:43:18.380Z,86.46
2023-05-14T18:45:48.423Z,86.61
2023-05-14T18:48:16.319Z,87.12
2023-05-14T18:50:42.964Z,87.47
2023-05-14T18:53:09.625Z,86.98
2023-05-14T18:55:36.919Z,86.78
2023-05-14T18:58:08.372Z,87.02
2023-05-14T19:00:37.491Z,86.85
2023-05-14T19:03:06.731Z,86.61
2023-05-14T19:05:33.397Z,87.08
2023-05-14T19:08:01.124Z,87.67
2023-05-14T19:10:30.064Z,88.37
2023-05-14T19:12:57.563Z,89.87
2023-05-14T19:15:29.691Z,91.24
2023-05-14T19:17:58.678Z,92.04
2023-05-14T19:20:30.197Z,91.58
2023-05-14T19:22:56.846Z,93.18
2023-05-14T19:25:23.438Z,93.41
2023-05-14T19:27:51.103Z,94.15
2023-05-14T19:30:20.022Z,94.60
2023-05-14T19:32:48.988Z,95.73
2023-05-14T19:35:16.192Z,95.91
2023-05-14T19:37:45.799Z,96.43
2023-05-14T19:40:12.530Z,96.93
2023-05-14T19:42:39.203Z,97.23
2023-05-14T19:45:06.289Z,98.02
2023-05-14T19:47:35.433Z,98.73
2023-05-14T19:50:02.034Z,99.37
2023-05-14T19:52:28.623Z,100.00
2023-05-14T19:54:57.332Z,100.00
2023-05-14T19:57:26.807Z,100.00
2023-05-14T19:59:55.632Z,100.00
2023-05-14T20:02:23.006Z,100.00
2023-05-14T20:04:49.714Z,100.00
2023-05-14T20:07:16.397Z,100.00
2023-05-14T20:09:43.304Z,100.00
2023-05-14T20:12:09.931Z,100.00
2023-05-14T20:14:36.646Z,100.00
2023-05-14T20:17:03.519Z,100.00
2023-05-14T20:19:31.142Z,100.00
2023-05-14T20:21:57.820Z,100.00
2023-05-14T20:24:24.457Z,100.00
2023-05-14T20:26:51.128Z,100.00
2023-05-14T20:29:17.760Z,100.00
2023-05-14T20:31:46.661Z,100.00
2023-05-14T20:34:13.264Z,100.00
2023-05-14T20:36:42.333Z,100.00
2023-05-14T20:39:09.127Z,100.00
2023-05-14T20:41:35.811Z,100.00
2023-05-14T20:44:02.520Z,100.00
2023-05-14T20:46:31.985Z,100.00
2023-05-14T20:49:01.321Z,100.00
2023-05-14T20:51:28.045Z,100.00
2023-05-14T20:53:57.059Z,100.00
2023-05-14T20:56:23.770Z,100.00
2023-05-14T20:58:50.398Z,100.00
2023-05-14T21:01:17.092Z,100.00
2023-05-14T21:03:43.995Z,100.00
2023-05-14T21:06:10.922Z,100.00
2023-05-14T21:08:39.305Z,100.00
2023-05-14T21:11:06.476Z,100.00
2023-05-14T21:13:33.073Z,100.00
2023-05-14T21:16:00.386Z,100.00
2023-05-14T21:18:30.801Z,100.00
2023-05-14T21:20:57.527Z,100.00
2023-05-14T21:23:24.150Z,100.00
2023-05-14T21:25:51.216Z,100.00
2023-05-14T21:28:17.999Z,100.00
2023-05-14T21:30:44.983Z,100.00
2023-05-14T21:33:11.632Z,100.00
2023-05-14T21:35:38.613Z,100.00
2023-05-14T21:38:05.757Z,100.00
2023-05-14T21:40:34.897Z,100.00
2023-05-14T21:43:01.583Z,100.00
2023-05-14T21:45:28.617Z,100.00
2023-05-14T21:47:55.441Z,100.00
2023-05-14T21:50:24.848Z,100.00
2023-05-14T21:52:53.830Z,100.00
2023-05-14T21:55:20.517Z,100.00
2023-05-14T21:57:49.510Z,100.00
2023-05-14T22:00:23.157Z,100.00
2023-05-14T22:02:51.053Z,100.00
2023-05-14T22:05:20.506Z,100.00
2023-05-14T22:07:49.411Z,100.00
2023-05-14T22:10:18.486Z,100.00
2023-05-14T22:12:45.809Z,100.00
2023-05-14T22:15:12.624Z,100.00
2023-05-14T22:17:41.870Z,100.00
2023-05-14T22:20:11.668Z,100.00
2023-05-14T22:22:41.139Z,100.00
2023-05-14T22:25:10.414Z,100.00
2023-05-14T22:27:37.083Z,100.00
2023-05-14T22:30:03.854Z,100.00
2023-05-14T22:32:30.508Z,100.00
2023-05-14T22:35:00.049Z,100.00
2023-05-14T22:37:29.181Z,100.00
2023-05-14T22:39:55.803Z,100.00
2023-05-14T22:42:22.433Z,100.00
2023-05-14T22:44:49.437Z,100.00
2023-05-14T22:47:18.459Z,100.00
2023-05-14T22:49:45.465Z,100.00
2023-05-14T22:52:14.561Z,100.00
2023-05-14T22:54:41.152Z,100.00
2023-05-14T22:57:07.850Z,100.00
2023-05-14T22:59:36.976Z,100.00
2023-05-14T23:02:03.803Z,100.00
2023-05-14T23:04:30.501Z,100.00
2023-05-14T23:06:59.607Z,100.00
2023-05-14T23:09:29.467Z,100.00
2023-05-14T23:11:56.120Z,100.00
2023-05-14T23:14:22.802Z,100.00
2023-05-14T23:16:49.361Z,100.00
2023-05-14T23:19:16.537Z,100.00
2023-05-14T23:21:48.705Z,100.00
2023-05-14T23:24:18.070Z,100.00
2023-05-14T23:26:47.433Z,100.00
2023-05-14T23:29:16.376Z,100.00
2023-05-14T23:31:43.745Z,100.00
2023-05-14T23:34:10.528Z,100.00
2023-05-14T23:36:37.344Z,100.00
2023-05-14T23:39:04.017Z,100.00
2023-05-14T23:41:33.172Z,100.00
2023-05-14T23:44:02.237Z,100.00
2023-05-14T23:46:28.995Z,100.00
2023-05-14T23:48:58.078Z,100.00
2023-05-14T23:51:27.233Z,100.00
2023-05-14T23:53:58.360Z,100.00
2023-05-14T23:56:25.829Z,100.00
2023-05-14T23:58:54.869Z,100.00
